createdAt,value
2022-12-04T00:00:14.659Z,36.75
2022-12-04T00:00:46.153Z,40.76
2022-12-04T00:01:22.693Z,40.80
2022-12-04T00:01:54.455Z,41.38
2022-12-04T00:02:26.221Z,40.38
2022-12-04T00:02:58.173Z,39.65
2022-12-04T00:03:29.782Z,39.84
2022-12-04T00:04:01.457Z,39.98
2022-12-04T00:04:33.049Z,44.18
2022-12-04T00:05:05.998Z,40.58
2022-12-04T00:05:37.628Z,39.58
2022-12-04T00:06:14.589Z,41.58
2022-12-04T00:06:46.087Z,38.38
2022-12-04T00:07:18.395Z,41.28
2022-12-04T00:07:50.881Z,37.83
2022-12-04T00:08:22.386Z,38.58
2022-12-04T00:08:54.561Z,43.02
2022-12-04T00:09:26.323Z,41.78
2022-12-04T00:09:57.790Z,40.30
2022-12-04T00:10:29.367Z,39.60
2022-12-04T00:11:01.352Z,38.63
2022-12-04T00:11:33.639Z,38.42
2022-12-04T00:12:05.408Z,42.28
2022-12-04T00:12:36.864Z,41.54
2022-12-04T00:13:08.314Z,39.76
2022-12-04T00:13:40.281Z,38.92
2022-12-04T00:14:11.735Z,41.10
2022-12-04T00:15:16.390Z,41.40
2022-12-04T00:16:41.776Z,34.90
2022-12-04T00:17:13.469Z,37.96
2022-12-04T00:17:48.214Z,39.30
2022-12-04T00:18:20.061Z,40.06
2022-12-04T00:18:51.944Z,37.42
2022-12-04T00:19:23.464Z,38.95
2022-12-04T00:19:55.202Z,40.40
2022-12-04T00:20:27.202Z,39.40
2022-12-04T00:20:58.706Z,41.86
2022-12-04T00:21:30.176Z,39.64
2022-12-04T00:22:01.642Z,42.45
2022-12-04T00:22:33.314Z,42.54
2022-12-04T00:23:04.781Z,40.66
2022-12-04T00:23:37.537Z,42.60
2022-12-04T00:24:08.991Z,39.25
2022-12-04T00:24:40.632Z,42.35
2022-12-04T00:25:12.401Z,42.70
2022-12-04T00:25:48.530Z,40.45
2022-12-04T00:26:25.673Z,42.96
2022-12-04T00:26:57.126Z,38.50
2022-12-04T00:27:28.599Z,42.35
2022-12-04T00:28:00.775Z,41.10
2022-12-04T00:28:32.924Z,40.68
2022-12-04T00:29:04.502Z,40.22
2022-12-04T00:29:37.001Z,43.78
2022-12-04T00:30:09.032Z,37.94
2022-12-04T00:30:41.985Z,40.45
2022-12-04T00:31:16.854Z,37.83
2022-12-04T00:31:48.470Z,41.15
2022-12-04T00:32:19.998Z,41.63
2022-12-04T00:32:51.478Z,40.63
2022-12-04T00:33:23.254Z,40.75
2022-12-04T00:33:55.242Z,41.45
2022-12-04T00:34:28.249Z,40.64
2022-12-04T00:34:59.797Z,41.17
2022-12-04T00:35:31.250Z,41.80
2022-12-04T00:36:06.575Z,40.25
2022-12-04T00:36:38.234Z,40.58
2022-12-04T00:37:09.730Z,39.03
2022-12-04T00:37:41.186Z,42.55
2022-12-04T00:38:12.899Z,42.06
2022-12-04T00:38:44.977Z,42.25
2022-12-04T00:39:16.493Z,43.17
2022-12-04T00:39:47.932Z,42.48
2022-12-04T00:40:19.418Z,41.84
2022-12-04T00:40:51.765Z,40.04
2022-12-04T00:41:24.901Z,40.90
2022-12-04T00:41:56.393Z,43.38
2022-12-04T00:42:27.969Z,42.72
2022-12-04T00:42:59.432Z,40.95
2022-12-04T00:43:31.401Z,40.95
2022-12-04T00:44:03.432Z,39.40
2022-12-04T00:44:34.883Z,41.94
2022-12-04T00:45:06.941Z,42.46
2022-12-04T00:45:38.541Z,42.20
2022-12-04T00:46:10.401Z,40.76
2022-12-04T00:46:41.963Z,40.28
2022-12-04T00:47:13.557Z,39.52
2022-12-04T00:47:45.204Z,42.78
2022-12-04T00:48:16.657Z,39.75
2022-12-04T00:48:48.256Z,41.35
2022-12-04T00:49:19.730Z,41.45
2022-12-04T00:49:51.187Z,40.26
2022-12-04T00:50:22.832Z,38.20
2022-12-04T00:50:55.429Z,39.17
2022-12-04T00:51:26.973Z,40.42
2022-12-04T00:51:58.565Z,41.20
2022-12-04T00:52:30.072Z,39.08
2022-12-04T00:53:01.912Z,45.15
2022-12-04T00:53:33.407Z,42.78
2022-12-04T00:54:04.874Z,43.42
2022-12-04T00:54:36.316Z,40.54
2022-12-04T00:55:08.351Z,42.78
2022-12-04T00:55:41.146Z,44.22
2022-12-04T00:56:18.448Z,41.56
2022-12-04T00:56:50.164Z,40.94
2022-12-04T00:57:21.617Z,40.25
2022-12-04T00:57:58.427Z,41.70
2022-12-04T00:58:31.313Z,39.12
2022-12-04T00:59:02.976Z,40.00
2022-12-04T00:59:34.559Z,41.50
2022-12-04T01:00:08.427Z,40.55
2022-12-04T01:00:41.532Z,41.08
2022-12-04T01:01:16.180Z,40.45
2022-12-04T01:01:47.657Z,42.13
2022-12-04T01:02:19.102Z,44.55
2022-12-04T01:02:50.591Z,40.05
2022-12-04T01:03:22.113Z,39.63
2022-12-04T01:03:54.727Z,42.10
2022-12-04T01:04:26.277Z,41.15
2022-12-04T01:04:57.779Z,42.55
2022-12-04T01:05:29.364Z,42.06
2022-12-04T01:06:01.057Z,40.12
2022-12-04T01:06:34.253Z,41.67
2022-12-04T01:07:05.966Z,40.92
2022-12-04T01:07:37.872Z,43.47
2022-12-04T01:08:10.357Z,40.65
2022-12-04T01:08:41.909Z,43.55
2022-12-04T01:09:13.414Z,44.00
2022-12-04T01:09:44.872Z,42.35
2022-12-04T01:10:16.402Z,41.97
2022-12-04T01:10:47.874Z,43.80
2022-12-04T01:11:20.834Z,41.00
2022-12-04T01:11:52.274Z,41.35
2022-12-04T01:12:23.782Z,41.08
2022-12-04T01:12:55.208Z,42.60
2022-12-04T01:13:27.059Z,41.47
2022-12-04T01:13:59.805Z,43.90
2022-12-04T01:14:31.509Z,39.83
2022-12-04T01:15:03.083Z,43.66
2022-12-04T01:15:38.743Z,38.40
2022-12-04T01:16:16.917Z,39.66
2022-12-04T01:16:48.667Z,40.53
2022-12-04T01:17:20.248Z,41.08
2022-12-04T01:17:51.871Z,41.08
2022-12-04T01:18:23.306Z,42.50
2022-12-04T01:18:55.179Z,40.72
2022-12-04T01:19:26.639Z,40.20
2022-12-04T01:19:58.323Z,43.50
2022-12-04T01:20:29.824Z,40.03
2022-12-04T01:21:01.276Z,40.08
2022-12-04T01:21:33.087Z,41.48
2022-12-04T01:22:04.551Z,40.72
2022-12-04T01:22:36.045Z,39.35
2022-12-04T01:23:07.546Z,39.97
2022-12-04T01:23:38.985Z,41.03
2022-12-04T01:24:10.727Z,40.70
2022-12-04T01:24:42.225Z,42.90
2022-12-04T01:25:13.932Z,40.04
2022-12-04T01:25:56.573Z,39.08
2022-12-04T01:26:28.200Z,39.78
2022-12-04T01:26:59.739Z,44.53
2022-12-04T01:27:31.415Z,41.92
2022-12-04T01:28:02.886Z,40.48
2022-12-04T01:28:34.617Z,41.08
2022-12-04T01:29:06.229Z,42.60
2022-12-04T01:29:38.089Z,38.95
2022-12-04T01:30:09.885Z,43.78
2022-12-04T01:30:41.347Z,43.15
2022-12-04T01:31:15.044Z,42.50
2022-12-04T01:31:47.736Z,40.67
2022-12-04T01:32:19.325Z,39.72
2022-12-04T01:32:50.770Z,43.52
2022-12-04T01:33:22.196Z,39.08
2022-12-04T01:33:53.890Z,40.70
2022-12-04T01:34:25.404Z,42.38
2022-12-04T01:34:56.928Z,43.44
2022-12-04T01:35:28.378Z,42.22
2022-12-04T01:36:01.521Z,41.74
2022-12-04T01:36:33.005Z,42.70
2022-12-04T01:37:04.726Z,41.60
2022-12-04T01:37:36.314Z,38.65
2022-12-04T01:38:07.834Z,43.00
2022-12-04T01:38:40.440Z,42.22
2022-12-04T01:39:12.193Z,42.22
2022-12-04T01:39:43.820Z,40.96
2022-12-04T01:40:16.457Z,38.78
2022-12-04T01:40:48.496Z,42.74
2022-12-04T01:41:23.158Z,38.65
2022-12-04T01:41:54.597Z,41.00
2022-12-04T01:42:26.573Z,42.78
2022-12-04T01:42:59.709Z,39.63
2022-12-04T01:43:32.984Z,39.45
2022-12-04T01:44:13.543Z,42.83
2022-12-04T01:45:23.561Z,41.75
2022-12-04T01:45:56.897Z,38.42
2022-12-04T01:46:28.472Z,41.58
2022-12-04T01:47:01.143Z,39.83
2022-12-04T01:47:32.688Z,40.83
2022-12-04T01:48:22.715Z,42.85
2022-12-04T01:48:54.421Z,41.20
2022-12-04T01:49:31.633Z,39.90
2022-12-04T01:50:03.148Z,36.50
2022-12-04T01:50:34.654Z,42.40
2022-12-04T01:51:18.606Z,39.05
2022-12-04T01:52:12.869Z,39.18
2022-12-04T01:52:44.302Z,40.22
2022-12-04T01:53:15.994Z,42.28
2022-12-04T01:53:51.915Z,40.70
2022-12-04T01:54:30.212Z,43.65
2022-12-04T01:55:01.815Z,42.18
2022-12-04T01:55:33.424Z,42.32
2022-12-04T01:56:05.488Z,44.10
2022-12-04T01:56:43.589Z,39.42
2022-12-04T01:57:23.496Z,38.88
2022-12-04T01:57:56.289Z,40.14
2022-12-04T01:58:32.281Z,40.78
2022-12-04T01:59:04.477Z,43.46
2022-12-04T01:59:40.609Z,41.33
2022-12-04T02:00:15.976Z,42.55
2022-12-04T02:00:51.719Z,40.28
2022-12-04T02:01:24.121Z,40.82
2022-12-04T02:02:07.794Z,40.72
2022-12-04T02:02:42.255Z,40.60
2022-12-04T02:03:14.323Z,39.48
2022-12-04T02:03:45.862Z,39.85
2022-12-04T02:04:17.374Z,42.76
2022-12-04T02:04:48.966Z,37.70
2022-12-04T02:05:21.769Z,41.14
2022-12-04T02:05:53.282Z,38.22
2022-12-04T02:06:24.728Z,39.15
2022-12-04T02:06:56.233Z,43.86
2022-12-04T02:07:28.318Z,41.60
2022-12-04T02:08:03.103Z,42.38
2022-12-04T02:08:36.000Z,40.26
2022-12-04T02:09:07.481Z,38.38
2022-12-04T02:09:39.600Z,40.10
2022-12-04T02:10:12.020Z,41.53
2022-12-04T02:10:50.125Z,41.97
2022-12-04T02:11:29.832Z,39.60
2022-12-04T02:12:32.755Z,38.46
2022-12-04T02:13:23.884Z,36.82
2022-12-04T02:14:04.244Z,36.33
2022-12-04T02:14:46.322Z,39.05
2022-12-04T02:15:22.559Z,37.25
2022-12-04T02:16:00.074Z,40.85
2022-12-04T02:17:04.072Z,41.24
2022-12-04T02:17:59.009Z,36.28
2022-12-04T02:18:57.624Z,39.60
2022-12-04T02:19:34.291Z,34.54
2022-12-04T02:20:15.723Z,41.70
2022-12-04T02:21:05.092Z,39.08
2022-12-04T02:21:39.210Z,39.10
2022-12-04T02:22:24.369Z,40.10
2022-12-04T02:23:19.165Z,39.92
2022-12-04T02:24:03.554Z,38.88
2022-12-04T02:24:50.129Z,42.35
2022-12-04T02:25:44.109Z,37.75
2022-12-04T02:26:40.537Z,38.63
2022-12-04T02:27:39.810Z,33.35
2022-12-04T02:28:30.673Z,34.46
2022-12-04T02:29:09.005Z,34.28
2022-12-04T02:29:57.658Z,36.44
2022-12-04T02:30:31.159Z,34.40
2022-12-04T02:31:03.972Z,36.97
2022-12-04T02:31:41.528Z,38.78
2022-12-04T02:32:19.984Z,39.10
2022-12-04T02:33:04.124Z,40.12
2022-12-04T02:33:46.090Z,41.04
2022-12-04T02:34:25.090Z,40.50
2022-12-04T02:35:01.689Z,37.72
2022-12-04T02:35:41.002Z,41.92
2022-12-04T02:36:28.733Z,40.60
2022-12-04T02:37:09.554Z,42.53
2022-12-04T02:37:46.019Z,41.40
2022-12-04T02:38:33.161Z,40.15
2022-12-04T02:39:10.172Z,40.25
2022-12-04T02:39:46.922Z,40.88
2022-12-04T02:40:25.810Z,39.20
2022-12-04T02:41:09.988Z,43.60
2022-12-04T02:42:06.376Z,39.78
2022-12-04T02:42:50.152Z,42.63
2022-12-04T02:43:27.335Z,38.03
2022-12-04T02:44:05.104Z,38.78
2022-12-04T02:44:50.109Z,39.10
2022-12-04T02:45:26.253Z,39.16
2022-12-04T02:46:07.925Z,41.62
2022-12-04T02:46:43.733Z,41.30
2022-12-04T02:47:19.394Z,40.85
2022-12-04T02:47:51.603Z,41.75
2022-12-04T02:48:24.369Z,41.68
2022-12-04T02:48:58.941Z,37.78
2022-12-04T02:49:38.130Z,42.40
2022-12-04T02:50:13.400Z,41.92
2022-12-04T02:50:47.828Z,40.08
2022-12-04T02:51:20.948Z,41.25
2022-12-04T02:51:53.691Z,43.92
2022-12-04T02:52:35.682Z,43.18
2022-12-04T02:53:16.777Z,42.42
2022-12-04T02:53:52.455Z,41.56
2022-12-04T02:54:34.746Z,38.95
2022-12-04T02:55:09.942Z,41.10
2022-12-04T02:55:48.489Z,39.15
2022-12-04T02:56:24.186Z,38.90
2022-12-04T02:56:56.314Z,40.55
2022-12-04T02:57:31.966Z,39.50
2022-12-04T02:58:16.172Z,42.46
2022-12-04T02:58:51.866Z,39.88
2022-12-04T02:59:28.454Z,42.36
2022-12-04T03:00:00.566Z,39.35
2022-12-04T03:00:32.749Z,38.35
2022-12-04T03:01:19.456Z,40.18
2022-12-04T03:01:56.515Z,40.46
2022-12-04T03:02:34.347Z,41.04
2022-12-04T03:03:09.032Z,40.34
2022-12-04T03:03:40.512Z,41.28
2022-12-04T03:04:17.724Z,43.85
2022-12-04T03:04:50.917Z,40.88
2022-12-04T03:05:38.892Z,43.53
2022-12-04T03:06:11.713Z,41.02
2022-12-04T03:06:44.883Z,41.02
2022-12-04T03:07:30.787Z,43.24
2022-12-04T03:08:06.218Z,42.50
2022-12-04T03:08:42.597Z,41.38
2022-12-04T03:09:19.999Z,40.17
2022-12-04T03:09:56.333Z,40.50
2022-12-04T03:10:31.988Z,41.55
2022-12-04T03:11:04.054Z,41.75
2022-12-04T03:11:36.445Z,41.75
2022-12-04T03:12:18.033Z,41.08
2022-12-04T03:12:54.271Z,39.83
2022-12-04T03:13:37.551Z,40.67
2022-12-04T03:14:15.900Z,41.47
2022-12-04T03:14:55.587Z,39.72
2022-12-04T03:15:48.648Z,43.10
2022-12-04T03:16:25.005Z,42.25
2022-12-04T03:17:02.227Z,40.95
2022-12-04T03:17:37.530Z,38.92
2022-12-04T03:18:29.175Z,38.58
2022-12-04T03:19:22.104Z,39.60
2022-12-04T03:19:57.863Z,40.22
2022-12-04T03:20:31.656Z,41.25
2022-12-04T03:21:06.885Z,40.55
2022-12-04T03:21:42.010Z,40.08
2022-12-04T03:22:16.035Z,42.30
2022-12-04T03:22:52.833Z,41.58
2022-12-04T03:23:32.598Z,41.56
2022-12-04T03:24:13.764Z,42.45
2022-12-04T03:24:55.139Z,39.33
2022-12-04T03:25:35.484Z,42.47
2022-12-04T03:26:23.680Z,38.35
2022-12-04T03:27:10.266Z,40.55
2022-12-04T03:27:51.537Z,39.70
2022-12-04T03:28:34.947Z,40.05
2022-12-04T03:29:18.375Z,41.60
2022-12-04T03:29:56.396Z,40.10
2022-12-04T03:30:37.063Z,41.68
2022-12-04T03:31:09.893Z,40.25
2022-12-04T03:31:45.318Z,41.13
2022-12-04T03:32:35.030Z,41.17
2022-12-04T03:33:13.331Z,39.03
2022-12-04T03:33:46.776Z,40.15
2022-12-04T03:34:51.167Z,41.80
2022-12-04T03:35:30.730Z,43.70
2022-12-04T03:36:14.178Z,40.28
2022-12-04T03:36:56.322Z,38.67
2022-12-04T03:37:36.312Z,39.30
2022-12-04T03:38:32.273Z,41.97
2022-12-04T03:39:11.583Z,37.72
2022-12-04T03:39:56.523Z,39.70
2022-12-04T03:40:42.288Z,37.35
2022-12-04T03:41:27.219Z,37.75
2022-12-04T03:42:15.337Z,40.15
2022-12-04T03:42:51.627Z,41.00
2022-12-04T03:43:56.665Z,41.92
2022-12-04T03:44:37.812Z,36.88
2022-12-04T03:45:15.709Z,36.67
2022-12-04T03:46:04.357Z,38.92
2022-12-04T03:46:42.825Z,39.25
2022-12-04T03:47:21.114Z,40.40
2022-12-04T03:48:00.909Z,40.70
2022-12-04T03:48:45.665Z,40.58
2022-12-04T03:49:31.715Z,40.58
2022-12-04T03:50:15.837Z,39.35
2022-12-04T03:51:12.580Z,39.15
2022-12-04T03:51:53.828Z,39.45
2022-12-04T03:52:50.350Z,39.76
2022-12-04T03:53:29.862Z,35.78
2022-12-04T03:54:20.170Z,40.35
2022-12-04T03:55:20.853Z,37.30
2022-12-04T03:56:19.261Z,37.33
2022-12-04T03:56:54.494Z,33.20
2022-12-04T03:57:30.701Z,35.40
2022-12-04T03:58:09.598Z,37.17
2022-12-04T03:58:44.616Z,40.83
2022-12-04T03:59:23.254Z,40.76
2022-12-04T04:00:05.952Z,39.80
2022-12-04T04:00:40.714Z,37.10
2022-12-04T04:01:13.442Z,39.60
2022-12-04T04:01:49.173Z,41.63
2022-12-04T04:02:23.095Z,41.67
2022-12-04T04:03:04.852Z,42.28
2022-12-04T04:03:40.029Z,41.40
2022-12-04T04:04:17.494Z,40.56
2022-12-04T04:04:51.748Z,39.60
2022-12-04T04:05:24.142Z,39.34
2022-12-04T04:06:12.217Z,40.92
2022-12-04T04:07:01.653Z,42.32
2022-12-04T04:07:38.294Z,40.64
2022-12-04T04:08:29.438Z,40.65
2022-12-04T04:09:05.426Z,41.15
2022-12-04T04:09:40.618Z,39.12
2022-12-04T04:10:19.725Z,38.28
2022-12-04T04:10:53.128Z,39.68
2022-12-04T04:11:32.859Z,42.08
2022-12-04T04:12:08.474Z,37.55
2022-12-04T04:12:45.026Z,40.72
2022-12-04T04:13:39.639Z,40.38
2022-12-04T04:14:35.018Z,38.40
2022-12-04T04:15:28.768Z,38.18
2022-12-04T04:16:21.830Z,36.97
2022-12-04T04:17:15.175Z,39.54
2022-12-04T04:18:06.702Z,38.20
2022-12-04T04:18:57.300Z,36.90
2022-12-04T04:19:48.903Z,35.08
2022-12-04T04:20:44.505Z,34.54
2022-12-04T04:21:38.008Z,35.82
2022-12-04T04:22:28.702Z,34.15
2022-12-04T04:23:20.496Z,30.75
2022-12-04T04:24:11.054Z,32.85
2022-12-04T04:24:46.264Z,29.92
2022-12-04T04:25:20.653Z,31.35
2022-12-04T04:25:53.032Z,29.83
2022-12-04T04:26:25.761Z,30.44
2022-12-04T04:26:58.340Z,29.67
2022-12-04T04:27:30.097Z,31.10
2022-12-04T04:28:01.566Z,31.24
2022-12-04T04:28:35.450Z,31.86
2022-12-04T04:29:08.156Z,28.83
2022-12-04T04:29:39.894Z,29.45
2022-12-04T04:30:11.696Z,33.47
2022-12-04T04:30:43.191Z,33.90
2022-12-04T04:31:26.543Z,32.20
2022-12-04T04:32:22.913Z,31.30
2022-12-04T04:33:11.637Z,30.34
2022-12-04T04:34:06.945Z,30.77
2022-12-04T04:34:45.285Z,28.92
2022-12-04T04:35:32.274Z,29.38
2022-12-04T04:36:11.048Z,28.88
2022-12-04T04:36:55.685Z,29.58
2022-12-04T04:37:49.626Z,27.94
2022-12-04T04:38:28.704Z,28.80
2022-12-04T04:39:11.425Z,30.55
2022-12-04T04:39:50.438Z,31.50
2022-12-04T04:40:42.865Z,30.48
2022-12-04T04:41:24.127Z,27.45
2022-12-04T04:42:03.479Z,28.17
2022-12-04T04:43:11.677Z,30.83
2022-12-04T04:43:55.665Z,28.55
2022-12-04T04:44:45.135Z,26.92
2022-12-04T04:45:27.431Z,29.38
2022-12-04T04:46:04.832Z,28.85
2022-12-04T04:46:40.125Z,29.27
2022-12-04T04:47:17.389Z,29.00
2022-12-04T04:48:02.778Z,28.22
2022-12-04T04:48:38.566Z,29.55
2022-12-04T04:49:11.803Z,29.83
2022-12-04T04:49:43.926Z,28.85
2022-12-04T04:50:16.761Z,28.70
2022-12-04T04:50:48.981Z,28.27
2022-12-04T04:51:20.704Z,28.40
2022-12-04T04:51:53.711Z,32.00
2022-12-04T04:52:25.374Z,31.65
2022-12-04T04:53:02.484Z,28.88
2022-12-04T04:53:37.648Z,28.82
2022-12-04T04:54:12.357Z,29.85
2022-12-04T04:54:44.659Z,27.56
2022-12-04T04:55:17.721Z,28.77
2022-12-04T04:55:49.461Z,28.48
2022-12-04T04:56:21.578Z,31.85
2022-12-04T04:56:53.016Z,29.30
2022-12-04T04:57:33.934Z,28.83
2022-12-04T04:58:47.642Z,26.02
2022-12-04T04:59:19.127Z,29.02
2022-12-04T04:59:51.558Z,28.13
2022-12-04T05:00:23.201Z,29.60
2022-12-04T05:01:03.342Z,28.52
2022-12-04T05:01:35.131Z,29.15
2022-12-04T05:02:06.671Z,29.27
2022-12-04T05:02:38.424Z,31.90
2022-12-04T05:03:09.971Z,32.13
2022-12-04T05:03:42.185Z,31.65
2022-12-04T05:04:14.300Z,30.73
2022-12-04T05:04:45.753Z,26.52
2022-12-04T05:05:17.570Z,27.60
2022-12-04T05:05:49.026Z,27.33
2022-12-04T05:06:20.509Z,28.60
2022-12-04T05:06:51.944Z,28.48
2022-12-04T05:07:23.515Z,28.92
2022-12-04T05:07:54.987Z,30.58
2022-12-04T05:08:26.616Z,30.67
2022-12-04T05:08:58.310Z,27.27
2022-12-04T05:09:29.756Z,29.42
2022-12-04T05:10:01.247Z,28.30
2022-12-04T05:10:32.692Z,28.15
2022-12-04T05:11:04.978Z,28.25
2022-12-04T05:11:36.536Z,30.80
2022-12-04T05:12:08.169Z,31.50
2022-12-04T05:12:39.660Z,29.55
2022-12-04T05:13:14.382Z,29.55
2022-12-04T05:13:45.870Z,34.20
2022-12-04T05:14:17.342Z,31.50
2022-12-04T05:14:48.846Z,28.27
2022-12-04T05:15:20.441Z,30.13
2022-12-04T05:16:03.016Z,30.42
2022-12-04T05:16:34.677Z,27.42
2022-12-04T05:17:12.173Z,27.40
2022-12-04T05:17:44.214Z,26.98
2022-12-04T05:18:15.683Z,29.63
2022-12-04T05:19:05.600Z,25.63
2022-12-04T05:19:56.513Z,27.30
2022-12-04T05:20:28.316Z,26.70
2022-12-04T05:20:59.757Z,29.75
2022-12-04T05:21:31.733Z,28.84
2022-12-04T05:22:03.233Z,29.83
2022-12-04T05:22:36.238Z,30.08
2022-12-04T05:23:07.691Z,30.46
2022-12-04T05:23:39.155Z,26.60
2022-12-04T05:24:10.614Z,29.65
2022-12-04T05:24:42.053Z,28.63
2022-12-04T05:25:13.749Z,27.38
2022-12-04T05:25:45.666Z,28.67
2022-12-04T05:26:17.200Z,28.50
2022-12-04T05:26:48.678Z,31.00
2022-12-04T05:27:21.350Z,28.17
2022-12-04T05:27:52.854Z,28.88
2022-12-04T05:28:24.358Z,27.50
2022-12-04T05:28:55.817Z,29.13
2022-12-04T05:29:30.529Z,29.42
2022-12-04T05:30:06.673Z,28.10
2022-12-04T05:30:38.214Z,26.33
2022-12-04T05:31:09.759Z,28.20
2022-12-04T05:31:41.318Z,27.13
2022-12-04T05:32:12.953Z,30.58
2022-12-04T05:32:44.539Z,29.80
2022-12-04T05:33:16.034Z,30.02
2022-12-04T05:33:47.558Z,28.33
2022-12-04T05:34:19.114Z,29.80
2022-12-04T05:34:51.765Z,27.65
2022-12-04T05:35:23.431Z,29.85
2022-12-04T05:36:01.413Z,33.10
2022-12-04T05:36:32.934Z,28.02
2022-12-04T05:37:04.494Z,26.40
2022-12-04T05:37:37.661Z,29.18
2022-12-04T05:38:09.109Z,30.45
2022-12-04T05:38:40.829Z,30.12
2022-12-04T05:39:12.310Z,27.82
2022-12-04T05:39:44.428Z,26.90
2022-12-04T05:40:16.205Z,27.06
2022-12-04T05:40:47.806Z,31.50
2022-12-04T05:41:19.340Z,26.73
2022-12-04T05:41:50.850Z,27.83
2022-12-04T05:42:22.408Z,30.58
2022-12-04T05:42:53.856Z,30.05
2022-12-04T05:43:25.335Z,30.10
2022-12-04T05:43:56.813Z,27.80
2022-12-04T05:44:28.306Z,29.08
2022-12-04T05:44:59.753Z,28.02
2022-12-04T05:45:31.291Z,30.20
2022-12-04T05:46:04.790Z,27.73
2022-12-04T05:46:36.357Z,28.90
2022-12-04T05:47:08.017Z,29.20
2022-12-04T05:47:40.939Z,31.67
2022-12-04T05:48:12.447Z,29.85
2022-12-04T05:48:43.897Z,27.15
2022-12-04T05:49:15.487Z,27.35
2022-12-04T05:49:47.036Z,27.48
2022-12-04T05:50:18.531Z,28.10
2022-12-04T05:50:49.979Z,28.00
2022-12-04T05:51:21.440Z,29.83
2022-12-04T05:51:52.930Z,29.92
2022-12-04T05:52:24.546Z,28.42
2022-12-04T05:52:55.985Z,29.13
2022-12-04T05:53:27.448Z,27.78
2022-12-04T05:53:58.986Z,30.80
2022-12-04T05:54:30.421Z,29.45
2022-12-04T05:55:01.851Z,30.90
2022-12-04T05:55:33.309Z,30.24
2022-12-04T05:56:06.255Z,28.95
2022-12-04T05:56:37.714Z,27.27
2022-12-04T05:57:09.370Z,25.83
2022-12-04T05:57:40.822Z,31.23
2022-12-04T05:58:12.255Z,30.40
2022-12-04T05:58:43.930Z,27.84
2022-12-04T05:59:15.620Z,29.08
2022-12-04T05:59:47.181Z,29.50
2022-12-04T06:00:18.916Z,26.54
2022-12-04T06:00:50.374Z,27.40
2022-12-04T06:01:23.657Z,28.20
2022-12-04T06:01:55.222Z,29.92
2022-12-04T06:02:26.862Z,27.70
2022-12-04T06:02:58.445Z,28.86
2022-12-04T06:03:30.020Z,28.08
2022-12-04T06:04:01.764Z,26.23
2022-12-04T06:04:33.232Z,26.85
2022-12-04T06:05:05.142Z,28.84
2022-12-04T06:05:36.650Z,28.27
2022-12-04T06:06:21.750Z,27.70
2022-12-04T06:06:54.581Z,29.42
2022-12-04T06:07:26.182Z,28.48
2022-12-04T06:07:57.675Z,29.80
2022-12-04T06:08:29.202Z,26.05
2022-12-04T06:09:00.901Z,29.70
2022-12-04T06:09:32.593Z,27.48
2022-12-04T06:10:05.193Z,26.48
2022-12-04T06:10:36.671Z,26.20
2022-12-04T06:11:29.731Z,28.08
2022-12-04T06:12:01.172Z,27.02
2022-12-04T06:12:32.659Z,27.68
2022-12-04T06:13:05.861Z,25.32
2022-12-04T06:13:37.313Z,26.95
2022-12-04T06:14:12.127Z,27.17
2022-12-04T06:14:43.610Z,28.33
2022-12-04T06:15:15.123Z,26.48
2022-12-04T06:15:46.600Z,26.70
2022-12-04T06:16:23.903Z,27.98
2022-12-04T06:16:55.625Z,27.76
2022-12-04T06:17:27.153Z,29.58
2022-12-04T06:17:58.926Z,23.52
2022-12-04T06:18:30.454Z,27.08
2022-12-04T06:19:06.965Z,26.95
2022-12-04T06:19:39.507Z,28.05
2022-12-04T06:20:12.086Z,29.44
2022-12-04T06:20:43.919Z,26.52
2022-12-04T06:21:15.418Z,28.94
2022-12-04T06:21:48.828Z,28.17
2022-12-04T06:22:20.277Z,29.67
2022-12-04T06:22:51.705Z,27.45
2022-12-04T06:23:23.141Z,25.65
2022-12-04T06:23:54.922Z,29.52
2022-12-04T06:24:26.473Z,30.30
2022-12-04T06:24:57.921Z,29.83
2022-12-04T06:25:29.614Z,29.30
2022-12-04T06:26:07.332Z,28.52
2022-12-04T06:26:51.969Z,28.28
2022-12-04T06:27:29.255Z,29.20
2022-12-04T06:28:00.817Z,28.52
2022-12-04T06:28:32.306Z,30.42
2022-12-04T06:29:03.804Z,27.85
2022-12-04T06:29:35.291Z,27.10
2022-12-04T06:30:07.468Z,27.75
2022-12-04T06:30:39.067Z,33.40
2022-12-04T06:31:12.933Z,30.34
2022-12-04T06:31:44.524Z,27.00
2022-12-04T06:32:21.140Z,28.64
2022-12-04T06:32:53.436Z,26.83
2022-12-04T06:33:24.967Z,29.06
2022-12-04T06:33:57.474Z,25.50
2022-12-04T06:34:29.692Z,32.25
2022-12-04T06:35:01.797Z,29.60
2022-12-04T06:35:33.229Z,29.98
2022-12-04T06:36:08.294Z,29.15
2022-12-04T06:36:39.897Z,27.86
2022-12-04T06:37:11.393Z,29.38
2022-12-04T06:37:42.899Z,26.92
2022-12-04T06:38:14.445Z,28.15
2022-12-04T06:38:45.920Z,31.10
2022-12-04T06:39:19.143Z,29.45
2022-12-04T06:39:50.968Z,27.13
2022-12-04T06:40:22.425Z,29.42
2022-12-04T06:40:54.317Z,25.63
2022-12-04T06:41:26.984Z,28.42
2022-12-04T06:41:58.432Z,27.58
2022-12-04T06:42:29.875Z,25.98
2022-12-04T06:43:01.317Z,29.00
2022-12-04T06:43:32.968Z,29.20
2022-12-04T06:44:04.618Z,27.67
2022-12-04T06:44:36.182Z,29.30
2022-12-04T06:45:08.272Z,27.04
2022-12-04T06:45:39.817Z,28.92
2022-12-04T06:46:17.123Z,29.23
2022-12-04T06:46:50.062Z,29.10
2022-12-04T06:47:21.725Z,25.63
2022-12-04T06:47:53.150Z,27.25
2022-12-04T06:48:24.603Z,30.34
2022-12-04T06:48:57.096Z,27.78
2022-12-04T06:49:28.563Z,28.75
2022-12-04T06:50:00.031Z,30.92
2022-12-04T06:50:31.548Z,33.63
2022-12-04T06:51:05.567Z,31.08
2022-12-04T06:51:37.878Z,32.28
2022-12-04T06:52:09.362Z,30.26
2022-12-04T06:52:40.843Z,26.88
2022-12-04T06:53:12.607Z,31.63
2022-12-04T06:53:44.584Z,26.55
2022-12-04T06:54:16.055Z,29.30
2022-12-04T06:54:47.531Z,29.13
2022-12-04T06:55:19.225Z,31.30
2022-12-04T06:55:50.697Z,33.22
2022-12-04T06:56:24.988Z,28.70
2022-12-04T06:56:56.494Z,30.38
2022-12-04T06:57:28.075Z,29.58
2022-12-04T06:57:59.503Z,28.70
2022-12-04T06:58:31.450Z,32.40
2022-12-04T06:59:03.848Z,28.17
2022-12-04T06:59:36.149Z,29.73
2022-12-04T07:00:08.331Z,30.52
2022-12-04T07:00:39.840Z,27.95
2022-12-04T07:01:14.658Z,32.18
2022-12-04T07:01:46.175Z,30.13
2022-12-04T07:02:17.721Z,28.80
2022-12-04T07:02:49.334Z,30.63
2022-12-04T07:03:21.884Z,28.45
2022-12-04T07:03:54.260Z,28.95
2022-12-04T07:04:25.698Z,27.64
2022-12-04T07:04:57.212Z,30.52
2022-12-04T07:05:28.660Z,31.25
2022-12-04T07:06:00.103Z,32.10
2022-12-04T07:06:36.940Z,28.35
2022-12-04T07:07:10.076Z,28.10
2022-12-04T07:07:41.770Z,29.52
2022-12-04T07:08:13.735Z,28.27
2022-12-04T07:08:46.911Z,29.73
2022-12-04T07:09:18.730Z,30.67
2022-12-04T07:09:50.265Z,29.15
2022-12-04T07:10:21.819Z,31.30
2022-12-04T07:10:59.028Z,30.77
2022-12-04T07:11:30.854Z,28.73
2022-12-04T07:12:02.341Z,32.42
2022-12-04T07:12:33.805Z,32.28
2022-12-04T07:13:05.905Z,31.23
2022-12-04T07:13:37.604Z,30.17
2022-12-04T07:14:09.875Z,30.73
2022-12-04T07:14:41.529Z,30.20
2022-12-04T07:15:12.984Z,30.38
2022-12-04T07:15:44.534Z,30.40
2022-12-04T07:16:18.215Z,30.58
2022-12-04T07:16:50.226Z,30.02
2022-12-04T07:17:21.767Z,28.67
2022-12-04T07:17:53.277Z,29.60
2022-12-04T07:18:24.865Z,31.20
2022-12-04T07:18:57.331Z,29.95
2022-12-04T07:19:29.049Z,31.83
2022-12-04T07:20:00.523Z,30.95
2022-12-04T07:20:32.086Z,29.65
2022-12-04T07:21:08.703Z,29.50
2022-12-04T07:21:40.612Z,27.62
2022-12-04T07:22:12.056Z,26.88
2022-12-04T07:22:43.525Z,30.58
2022-12-04T07:23:15.045Z,31.23
2022-12-04T07:23:52.945Z,29.27
2022-12-04T07:24:24.453Z,27.23
2022-12-04T07:24:55.959Z,27.13
2022-12-04T07:25:29.464Z,30.08
2022-12-04T07:26:08.426Z,31.27
2022-12-04T07:26:39.883Z,29.88
2022-12-04T07:27:11.370Z,33.47
2022-12-04T07:27:43.554Z,29.38
2022-12-04T07:28:15.082Z,31.45
2022-12-04T07:28:46.939Z,30.56
2022-12-04T07:29:18.416Z,29.58
2022-12-04T07:29:51.920Z,29.42
2022-12-04T07:30:23.426Z,29.64
2022-12-04T07:30:54.928Z,28.17
2022-12-04T07:31:28.092Z,33.26
2022-12-04T07:31:59.652Z,28.13
2022-12-04T07:32:31.499Z,30.98
2022-12-04T07:33:03.087Z,31.10
2022-12-04T07:33:34.852Z,29.00
2022-12-04T07:34:06.550Z,29.67
2022-12-04T07:34:38.017Z,30.12
2022-12-04T07:35:09.602Z,32.72
2022-12-04T07:35:41.045Z,31.90
2022-12-04T07:36:14.938Z,30.98
2022-12-04T07:36:46.363Z,31.40